CUU weather

General Roberto Fierro Villalobos International Airport
Chihuahua, Chihushua, Mexico

Public forecast

Using degrees Celsius for public forecast. Weather courtesy of forecast.io.

METAR (pilot weather report)

Report is more than 2 hours old.

Retrieved 2019/04/24 03:45 UTC (2 hours ago):

MMCU 240345Z 25010KT 10SM SKC 22/M07 A2988

TAF (pilot weather forecast)

Forecast is more than 6 hours old.

Retrieved 2019/04/23 18:54 UTC (11 hours ago):

TAF COR MMCU 231950Z 2318/2418 20010KT P6SM SKC FM232200 23015KT P6SM SCT020 BKN100 FM240300 30015G25KT P6SM SCT030 SCT250 FM241500 03015KT P6SM SCT250